createdAt,value
2017-05-26T00:00:11.553Z,3.64
2017-05-26T00:02:38.276Z,3.88
2017-05-26T00:05:05.045Z,3.58
2017-05-26T00:07:31.757Z,3.92
2017-05-26T00:09:58.483Z,3.42
2017-05-26T00:12:25.198Z,3.72
2017-05-26T00:14:51.919Z,4.20
2017-05-26T00:17:18.632Z,4.00
2017-05-26T00:19:45.393Z,3.60
2017-05-26T00:22:12.120Z,3.64
2017-05-26T00:24:38.838Z,3.22
2017-05-26T00:27:05.556Z,3.48
2017-05-26T00:29:32.273Z,4.02
2017-05-26T00:31:59.009Z,3.66
2017-05-26T00:34:25.792Z,3.90
2017-05-26T00:36:52.524Z,3.60
2017-05-26T00:39:19.253Z,3.30
2017-05-26T00:41:45.981Z,3.36
2017-05-26T00:44:12.703Z,3.96
2017-05-26T00:46:39.430Z,3.52
2017-05-26T00:49:06.166Z,3.46
2017-05-26T00:51:32.881Z,3.32
2017-05-26T00:53:59.594Z,4.12
2017-05-26T00:56:26.363Z,3.68
2017-05-26T00:58:53.089Z,4.06
2017-05-26T01:01:19.809Z,3.80
2017-05-26T01:03:46.532Z,3.84
2017-05-26T01:06:13.252Z,4.04
2017-05-26T01:08:39.976Z,3.60
2017-05-26T01:11:06.738Z,4.22
2017-05-26T01:13:33.457Z,3.80
2017-05-26T01:16:00.173Z,3.92
2017-05-26T01:18:26.919Z,3.24
2017-05-26T01:20:53.650Z,4.20
2017-05-26T01:23:20.365Z,4.04
2017-05-26T01:25:47.130Z,4.20
2017-05-26T01:28:13.853Z,4.32
2017-05-26T01:30:40.574Z,3.50
2017-05-26T01:33:08.504Z,3.80
2017-05-26T01:35:35.259Z,3.84
2017-05-26T01:38:02.007Z,3.72
2017-05-26T01:40:28.777Z,4.08
2017-05-26T01:42:55.513Z,3.84
2017-05-26T01:45:22.233Z,3.80
2017-05-26T01:47:48.971Z,4.10
2017-05-26T01:50:15.692Z,4.10
2017-05-26T01:52:42.427Z,4.20
2017-05-26T01:55:09.144Z,3.72
2017-05-26T01:57:35.859Z,3.94
2017-05-26T02:00:02.577Z,4.70
2017-05-26T02:02:29.338Z,3.90
2017-05-26T02:04:56.053Z,4.30
2017-05-26T02:07:22.775Z,4.12
2017-05-26T02:09:49.499Z,4.50
2017-05-26T02:12:16.217Z,4.24
2017-05-26T02:14:42.949Z,4.38
2017-05-26T02:17:09.725Z,3.80
2017-05-26T02:19:36.444Z,4.56
2017-05-26T02:22:03.159Z,4.54
2017-05-26T02:24:29.894Z,4.78
2017-05-26T02:26:56.612Z,4.44
2017-05-26T02:29:23.330Z,4.52
2017-05-26T02:31:50.156Z,4.60
2017-05-26T02:34:16.876Z,4.30
2017-05-26T02:36:43.604Z,4.56
2017-05-26T02:39:10.851Z,4.48
2017-05-26T02:41:37.566Z,4.26
2017-05-26T02:44:04.277Z,4.90
2017-05-26T02:46:31.105Z,4.70
2017-05-26T02:48:57.820Z,4.40
2017-05-26T02:51:24.556Z,4.90
2017-05-26T02:53:51.384Z,5.40
2017-05-26T02:56:18.105Z,5.52
2017-05-26T02:58:44.820Z,5.12
2017-05-26T03:01:11.553Z,5.70
2017-05-26T03:03:38.265Z,5.38
2017-05-26T03:06:04.987Z,4.54
2017-05-26T03:08:31.818Z,4.82
2017-05-26T03:10:58.534Z,5.12
2017-05-26T03:13:25.255Z,4.88
2017-05-26T03:15:51.978Z,5.16
2017-05-26T03:18:18.689Z,5.56
2017-05-26T03:20:45.401Z,4.48
2017-05-26T03:23:12.227Z,5.32
2017-05-26T03:25:38.950Z,4.90
2017-05-26T03:28:05.679Z,6.08
2017-05-26T03:30:32.500Z,5.42
2017-05-26T03:32:59.212Z,5.10
2017-05-26T03:35:25.949Z,5.32
2017-05-26T03:37:52.674Z,5.70
2017-05-26T03:40:19.394Z,4.74
2017-05-26T03:42:46.118Z,5.46
2017-05-26T03:45:12.940Z,6.02
2017-05-26T03:47:39.661Z,5.98
2017-05-26T03:50:06.385Z,5.28
2017-05-26T03:52:33.107Z,5.60
2017-05-26T03:54:59.834Z,5.86
2017-05-26T03:57:26.561Z,6.00
2017-05-26T03:59:53.329Z,5.44
2017-05-26T04:02:20.053Z,6.04
2017-05-26T04:04:46.780Z,5.62
2017-05-26T04:07:13.525Z,5.58
2017-05-26T04:09:40.244Z,5.54
2017-05-26T04:12:06.965Z,5.30
2017-05-26T04:14:33.673Z,5.98
2017-05-26T04:17:00.385Z,5.94
2017-05-26T04:19:27.109Z,6.28
2017-05-26T04:21:53.829Z,5.96
2017-05-26T04:24:20.560Z,5.98
2017-05-26T04:26:47.269Z,6.14
2017-05-26T04:29:13.986Z,6.70
2017-05-26T04:31:40.705Z,5.94
2017-05-26T04:34:07.430Z,6.38
2017-05-26T04:36:34.190Z,6.96
2017-05-26T04:39:00.921Z,6.52
2017-05-26T04:41:27.638Z,6.98
2017-05-26T04:43:54.367Z,7.08
2017-05-26T04:46:21.107Z,6.34
2017-05-26T04:48:47.837Z,7.16
2017-05-26T04:51:14.626Z,6.84
2017-05-26T04:53:41.352Z,7.14
2017-05-26T04:56:08.088Z,6.20
2017-05-26T04:58:34.817Z,7.68
2017-05-26T05:01:01.534Z,7.38
2017-05-26T05:03:28.245Z,7.44
2017-05-26T05:05:54.999Z,6.96
2017-05-26T05:08:21.714Z,6.56
2017-05-26T05:10:48.432Z,6.98
2017-05-26T05:13:15.154Z,7.46
2017-05-26T05:15:41.875Z,6.92
2017-05-26T05:18:08.600Z,7.72
2017-05-26T05:20:35.366Z,7.30
2017-05-26T05:23:02.093Z,7.58
2017-05-26T05:25:28.817Z,6.98
2017-05-26T05:27:55.593Z,9.16
2017-05-26T05:30:22.311Z,7.50
2017-05-26T05:32:49.015Z,7.98
2017-05-26T05:35:15.732Z,8.34
2017-05-26T05:37:42.444Z,8.04
2017-05-26T05:40:09.162Z,8.06
2017-05-26T05:42:35.930Z,7.28
2017-05-26T05:45:02.646Z,6.80
2017-05-26T05:47:29.364Z,7.62
2017-05-26T05:49:56.116Z,7.16
2017-05-26T05:52:22.832Z,6.66
2017-05-26T05:54:49.569Z,8.12
2017-05-26T05:57:16.314Z,7.50
2017-05-26T05:59:43.045Z,6.82
2017-05-26T06:02:09.781Z,7.40
2017-05-26T06:04:36.561Z,6.38
2017-05-26T06:07:03.280Z,7.50
2017-05-26T06:09:30.022Z,7.08
2017-05-26T06:11:56.734Z,7.12
2017-05-26T06:14:23.450Z,7.58
2017-05-26T06:16:50.170Z,7.12
2017-05-26T06:19:16.892Z,6.62
2017-05-26T06:21:43.625Z,7.30
2017-05-26T06:24:10.357Z,7.36
2017-05-26T06:26:37.127Z,6.40
2017-05-26T06:29:03.847Z,6.60
2017-05-26T06:31:30.567Z,5.96
2017-05-26T06:33:57.281Z,6.30
2017-05-26T06:36:23.993Z,7.10
2017-05-26T06:38:50.731Z,6.10
2017-05-26T06:41:17.458Z,6.66
2017-05-26T06:43:44.221Z,5.78
2017-05-26T06:46:10.941Z,5.58
2017-05-26T06:48:37.674Z,5.50
2017-05-26T06:51:04.394Z,6.64
2017-05-26T06:53:31.105Z,6.80
2017-05-26T06:55:57.821Z,5.82
2017-05-26T06:58:24.526Z,6.10
2017-05-26T07:00:51.265Z,5.56
2017-05-26T07:03:18.018Z,5.98
2017-05-26T07:05:44.733Z,5.44
2017-05-26T07:08:11.458Z,5.82
2017-05-26T07:10:38.228Z,5.70
2017-05-26T07:13:04.962Z,5.60
2017-05-26T07:15:31.681Z,5.40
2017-05-26T07:17:58.409Z,5.78
2017-05-26T07:20:25.141Z,6.78
2017-05-26T07:22:51.854Z,7.92
2017-05-26T07:25:18.580Z,7.00
2017-05-26T07:27:45.301Z,7.38
2017-05-26T07:30:12.030Z,11.20
2017-05-26T07:32:38.744Z,4.52
2017-05-26T07:35:05.477Z,3.42
2017-05-26T07:37:32.190Z,3.14
2017-05-26T07:39:58.911Z,3.32
2017-05-26T07:42:25.627Z,3.64
2017-05-26T07:44:52.351Z,3.28
2017-05-26T07:47:19.092Z,5.90
2017-05-26T07:49:45.819Z,3.12
2017-05-26T07:52:12.539Z,3.30
2017-05-26T07:54:39.261Z,3.10
2017-05-26T07:57:05.994Z,3.22
2017-05-26T07:59:32.723Z,2.98
2017-05-26T08:01:59.450Z,3.00
2017-05-26T08:04:26.170Z,2.86
2017-05-26T08:06:52.888Z,3.20
2017-05-26T08:09:19.674Z,2.92
2017-05-26T08:11:46.445Z,3.28
2017-05-26T08:14:13.166Z,3.32
2017-05-26T08:16:39.943Z,3.08
2017-05-26T08:19:06.663Z,2.74
2017-05-26T08:21:33.378Z,2.54
2017-05-26T08:24:00.116Z,2.40
2017-05-26T08:26:26.872Z,2.48
2017-05-26T08:28:53.588Z,2.70
2017-05-26T08:31:20.305Z,2.72
2017-05-26T08:33:47.038Z,2.22
2017-05-26T08:36:13.753Z,2.62
2017-05-26T08:38:40.517Z,2.62
2017-05-26T08:41:07.234Z,2.46
2017-05-26T08:43:33.953Z,2.42
2017-05-26T08:46:00.669Z,2.14
2017-05-26T08:48:27.402Z,4.20
2017-05-26T08:50:54.117Z,2.72
2017-05-26T08:53:20.884Z,2.28
2017-05-26T08:55:47.602Z,2.50
2017-05-26T08:58:15.110Z,2.50
2017-05-26T09:00:41.825Z,2.66
2017-05-26T09:03:08.536Z,2.50
2017-05-26T09:05:35.269Z,2.70
2017-05-26T09:08:02.024Z,2.58
2017-05-26T09:10:28.757Z,2.70
2017-05-26T09:12:55.471Z,2.94
2017-05-26T09:15:22.191Z,3.82
2017-05-26T09:17:48.930Z,4.12
2017-05-26T09:20:15.639Z,4.18
2017-05-26T09:22:42.400Z,2.64
2017-05-26T09:25:09.113Z,2.58
2017-05-26T09:27:35.830Z,2.74
2017-05-26T09:30:02.553Z,3.08
2017-05-26T09:32:29.277Z,2.50
2017-05-26T09:34:56.009Z,2.66
2017-05-26T09:37:22.790Z,2.30
2017-05-26T09:39:49.517Z,2.40
2017-05-26T09:42:16.244Z,2.22
2017-05-26T09:44:42.995Z,2.16
2017-05-26T09:47:09.714Z,2.70
2017-05-26T09:49:36.427Z,3.16
2017-05-26T09:52:03.141Z,2.64
2017-05-26T09:54:29.859Z,2.96
2017-05-26T09:56:56.589Z,2.48
2017-05-26T09:59:23.314Z,2.54
2017-05-26T10:01:50.040Z,2.66
2017-05-26T10:04:16.762Z,2.42
2017-05-26T10:06:43.484Z,2.84
2017-05-26T10:09:10.201Z,2.56
2017-05-26T10:11:36.918Z,2.60
2017-05-26T10:14:03.652Z,2.72
2017-05-26T10:16:30.384Z,3.30
2017-05-26T10:18:57.141Z,2.72
2017-05-26T10:21:23.896Z,2.22
2017-05-26T10:23:50.627Z,2.72
2017-05-26T10:26:17.400Z,2.70
2017-05-26T10:28:44.154Z,2.60
2017-05-26T10:31:10.911Z,2.54
2017-05-26T10:33:37.638Z,2.86
2017-05-26T10:36:04.364Z,2.36
2017-05-26T10:38:31.110Z,2.52
2017-05-26T10:40:57.836Z,2.58
2017-05-26T10:43:24.557Z,2.60
2017-05-26T10:55:36.333Z,2.60
2017-05-26T10:58:03.053Z,2.86
2017-05-26T11:00:29.842Z,2.82
2017-05-26T11:02:56.562Z,3.00
2017-05-26T11:05:23.317Z,2.62
2017-05-26T11:07:50.034Z,2.48
2017-05-26T11:10:16.771Z,2.80
2017-05-26T11:12:43.497Z,2.82
2017-05-26T11:15:10.233Z,2.62
2017-05-26T11:17:37.099Z,2.70
2017-05-26T11:20:03.864Z,2.12
2017-05-26T11:22:30.605Z,2.90
2017-05-26T11:24:57.329Z,2.40
2017-05-26T11:27:24.058Z,3.18
2017-05-26T11:29:50.913Z,2.94
2017-05-26T11:32:17.654Z,2.88
2017-05-26T11:34:44.473Z,2.70
2017-05-26T11:37:11.185Z,2.58
2017-05-26T11:39:37.915Z,2.50
2017-05-26T11:42:04.722Z,3.30
2017-05-26T11:44:31.468Z,2.92
2017-05-26T11:46:58.196Z,2.52
2017-05-26T11:49:24.958Z,2.60
2017-05-26T11:51:51.673Z,2.76
2017-05-26T11:54:18.417Z,2.90
2017-05-26T11:56:45.154Z,2.42
2017-05-26T11:59:11.886Z,2.40
2017-05-26T12:01:38.653Z,3.40
2017-05-26T12:04:05.382Z,3.12
2017-05-26T12:06:32.110Z,2.72
2017-05-26T12:08:58.847Z,2.64
2017-05-26T12:11:25.556Z,2.82
2017-05-26T12:13:52.282Z,3.08
2017-05-26T12:16:19.017Z,3.22
2017-05-26T12:18:45.727Z,2.90
2017-05-26T12:21:12.438Z,2.18
2017-05-26T12:23:39.164Z,2.76
2017-05-26T12:26:05.885Z,2.50
2017-05-26T12:28:32.613Z,2.60
2017-05-26T12:30:59.339Z,2.82
2017-05-26T12:33:26.102Z,4.02
2017-05-26T12:35:52.873Z,2.44
2017-05-26T12:38:19.669Z,2.52
2017-05-26T12:40:46.398Z,3.38
2017-05-26T12:43:13.198Z,2.54
2017-05-26T12:45:39.970Z,3.30
2017-05-26T12:48:06.763Z,3.00
2017-05-26T12:50:33.518Z,2.30
2017-05-26T12:53:00.268Z,2.26
2017-05-26T12:55:27.001Z,2.68
2017-05-26T12:57:53.751Z,2.40
2017-05-26T13:00:20.513Z,2.58
2017-05-26T13:02:47.255Z,2.92
2017-05-26T13:05:14.033Z,2.52
2017-05-26T13:07:40.802Z,2.56
2017-05-26T13:10:07.532Z,2.62
2017-05-26T13:12:34.251Z,2.64
2017-05-26T13:15:01.038Z,2.90
2017-05-26T13:17:28.758Z,2.48
2017-05-26T13:19:55.494Z,2.10
2017-05-26T13:22:22.307Z,2.60
2017-05-26T13:24:49.054Z,2.34
2017-05-26T13:27:15.798Z,2.50
2017-05-26T13:29:42.597Z,2.56
2017-05-26T13:32:09.345Z,2.82
2017-05-26T13:34:36.120Z,2.26
2017-05-26T13:37:02.902Z,2.28
2017-05-26T13:39:29.649Z,2.40
2017-05-26T13:41:56.394Z,2.24
2017-05-26T13:44:23.130Z,2.54
2017-05-26T13:46:49.869Z,2.30
2017-05-26T13:49:16.613Z,2.52
2017-05-26T13:51:43.362Z,2.74
2017-05-26T13:54:10.086Z,2.48
2017-05-26T13:56:36.869Z,2.80
2017-05-26T13:59:03.592Z,2.62
2017-05-26T14:01:30.299Z,2.58
2017-05-26T14:03:57.020Z,3.14
2017-05-26T14:06:23.752Z,2.40
2017-05-26T14:08:50.466Z,2.52
2017-05-26T14:11:17.190Z,2.52
2017-05-26T14:13:43.957Z,2.42
2017-05-26T14:16:10.667Z,2.54
2017-05-26T14:18:37.451Z,2.62
2017-05-26T14:21:04.175Z,2.76
2017-05-26T14:23:30.892Z,2.38
2017-05-26T14:25:57.607Z,2.56
2017-05-26T14:28:24.366Z,2.60
2017-05-26T14:30:51.093Z,2.60
2017-05-26T14:33:17.825Z,2.84
2017-05-26T14:35:44.548Z,2.40
2017-05-26T14:38:11.288Z,2.30
2017-05-26T14:40:38.013Z,2.98
2017-05-26T14:43:04.741Z,3.00
2017-05-26T14:45:31.470Z,2.68
2017-05-26T14:47:58.203Z,2.48
2017-05-26T14:50:24.966Z,2.90
2017-05-26T14:52:51.679Z,2.52
2017-05-26T14:55:18.417Z,2.88
2017-05-26T14:57:45.197Z,3.10
2017-05-26T15:00:11.916Z,2.70
2017-05-26T15:02:38.641Z,2.68
2017-05-26T15:05:05.370Z,2.88
2017-05-26T15:07:32.097Z,2.72
2017-05-26T15:09:58.820Z,2.94
2017-05-26T15:12:25.560Z,2.64
2017-05-26T15:14:52.282Z,2.38
2017-05-26T15:17:19.002Z,2.54
2017-05-26T15:19:45.725Z,3.20
2017-05-26T15:22:12.444Z,2.80
2017-05-26T15:24:39.188Z,2.68
2017-05-26T15:27:05.927Z,2.96
2017-05-26T15:29:32.659Z,2.92
2017-05-26T15:31:59.379Z,2.78
2017-05-26T15:34:26.131Z,2.98
2017-05-26T15:36:52.864Z,2.72
2017-05-26T15:39:19.577Z,3.10
2017-05-26T15:41:46.337Z,3.24
2017-05-26T15:44:13.060Z,2.98
2017-05-26T15:46:39.777Z,3.12
2017-05-26T15:49:06.546Z,3.48
2017-05-26T15:51:33.277Z,3.82
2017-05-26T15:53:59.987Z,2.76
2017-05-26T15:56:26.702Z,3.62
2017-05-26T15:58:53.420Z,3.16
2017-05-26T16:01:20.146Z,2.74
2017-05-26T16:03:46.869Z,3.32
2017-05-26T16:06:13.604Z,3.16
2017-05-26T16:08:40.338Z,3.44
2017-05-26T16:11:07.073Z,3.02
2017-05-26T16:13:33.789Z,2.70
2017-05-26T16:16:00.508Z,2.56
2017-05-26T16:18:27.250Z,3.20
2017-05-26T16:20:53.969Z,2.98
2017-05-26T16:23:20.692Z,2.90
2017-05-26T16:25:47.418Z,3.42
2017-05-26T16:28:23.245Z,3.12
2017-05-26T16:30:59.774Z,2.62
2017-05-26T16:33:35.847Z,3.04
2017-05-26T16:36:09.572Z,3.40
2017-05-26T16:38:45.089Z,3.00
2017-05-26T16:41:12.372Z,3.38
2017-05-26T16:43:39.310Z,3.80
2017-05-26T16:46:06.029Z,3.26
2017-05-26T16:48:32.778Z,2.62
2017-05-26T16:50:59.534Z,3.42
2017-05-26T16:53:26.263Z,3.04
2017-05-26T16:55:52.997Z,2.74
2017-05-26T16:58:19.726Z,3.42
2017-05-26T17:00:46.448Z,4.02
2017-05-26T17:03:13.182Z,3.58
2017-05-26T17:05:39.914Z,3.42
2017-05-26T17:08:06.650Z,3.36
2017-05-26T17:10:33.372Z,3.22
2017-05-26T17:13:00.092Z,3.34
2017-05-26T17:15:26.811Z,2.90
2017-05-26T17:17:53.548Z,3.38
2017-05-26T17:20:20.276Z,3.94
2017-05-26T17:22:47.000Z,3.70
2017-05-26T17:25:13.772Z,3.90
2017-05-26T17:27:40.490Z,3.76
2017-05-26T17:30:07.210Z,6.72
2017-05-26T17:32:33.952Z,3.72
2017-05-26T17:35:00.665Z,3.96
2017-05-26T17:37:27.384Z,3.32
2017-05-26T17:39:54.110Z,3.72
2017-05-26T17:42:20.825Z,3.94
2017-05-26T17:44:47.573Z,4.08
2017-05-26T17:47:14.293Z,3.68
2017-05-26T17:49:41.014Z,4.22
2017-05-26T17:52:07.805Z,4.34
2017-05-26T17:54:34.542Z,3.88
2017-05-26T17:57:01.273Z,3.82
2017-05-26T17:59:27.999Z,3.62
2017-05-26T18:01:54.773Z,3.92
2017-05-26T18:04:21.517Z,3.96
2017-05-26T18:06:48.234Z,3.80
2017-05-26T18:09:15.008Z,4.76
2017-05-26T18:11:41.777Z,4.32
2017-05-26T18:14:08.744Z,3.90
2017-05-26T18:16:35.822Z,4.12
2017-05-26T18:19:02.541Z,3.70
2017-05-26T18:21:29.330Z,4.88
2017-05-26T18:23:56.057Z,4.44
2017-05-26T18:26:22.838Z,4.42
2017-05-26T18:28:49.557Z,5.16
2017-05-26T18:31:16.357Z,4.30
2017-05-26T18:33:43.077Z,4.90
2017-05-26T18:36:10.332Z,4.92
2017-05-26T18:38:37.054Z,4.30
2017-05-26T18:41:03.774Z,5.28
2017-05-26T18:43:30.492Z,4.86
2017-05-26T18:45:57.209Z,5.14
2017-05-26T18:48:24.047Z,5.00
2017-05-26T18:50:50.767Z,4.52
2017-05-26T18:53:17.496Z,5.28
2017-05-26T18:55:44.223Z,5.56
2017-05-26T18:58:10.937Z,5.44
2017-05-26T19:00:37.662Z,4.88
2017-05-26T19:03:04.381Z,4.72
2017-05-26T19:05:42.512Z,5.16
2017-05-26T19:08:09.573Z,5.36
2017-05-26T19:10:36.305Z,5.00
2017-05-26T19:13:03.074Z,6.48
2017-05-26T19:15:29.793Z,6.02
2017-05-26T19:17:56.571Z,5.66
2017-05-26T19:20:23.310Z,5.82
2017-05-26T19:22:50.039Z,4.94
2017-05-26T19:25:16.762Z,5.44
2017-05-26T19:27:43.531Z,6.90
2017-05-26T19:30:10.261Z,5.58
2017-05-26T19:32:36.992Z,5.40
2017-05-26T19:35:03.721Z,5.04
2017-05-26T19:37:30.582Z,5.74
2017-05-26T19:39:57.358Z,5.38
2017-05-26T19:42:24.115Z,5.40
2017-05-26T19:44:50.864Z,5.28
2017-05-26T19:47:17.646Z,5.38
2017-05-26T19:49:44.411Z,5.30
2017-05-26T19:52:11.192Z,5.08
2017-05-26T19:54:37.959Z,5.00
2017-05-26T19:57:04.732Z,5.04
2017-05-26T19:59:31.560Z,4.56
2017-05-26T20:01:58.340Z,5.54
2017-05-26T20:04:25.145Z,5.40
2017-05-26T20:06:51.995Z,4.74
2017-05-26T20:09:18.747Z,5.86
2017-05-26T20:11:45.501Z,5.64
2017-05-26T20:14:12.283Z,5.14
2017-05-26T20:16:39.108Z,5.62
2017-05-26T20:19:05.997Z,5.00
2017-05-26T20:21:32.750Z,5.06
2017-05-26T20:23:59.538Z,4.92
2017-05-26T20:26:26.337Z,4.80
2017-05-26T20:28:53.052Z,4.90
2017-05-26T20:31:19.899Z,6.02
2017-05-26T20:33:46.683Z,5.18
2017-05-26T20:36:13.420Z,5.76
2017-05-26T20:38:40.195Z,5.28
2017-05-26T20:41:06.959Z,4.80
2017-05-26T20:43:33.729Z,4.86
2017-05-26T20:46:00.537Z,5.04
2017-05-26T20:48:27.331Z,5.14
2017-05-26T20:50:54.134Z,5.10
2017-05-26T20:53:20.901Z,5.38
2017-05-26T20:55:47.668Z,5.60
2017-05-26T20:58:14.481Z,5.78
2017-05-26T21:00:48.459Z,5.50
2017-05-26T21:03:15.587Z,5.38
2017-05-26T21:05:42.358Z,5.78
2017-05-26T21:08:09.185Z,5.60
2017-05-26T21:10:36.041Z,6.10
2017-05-26T21:13:02.801Z,5.98
2017-05-26T21:15:29.636Z,6.10
2017-05-26T21:17:56.474Z,6.08
2017-05-26T21:20:23.309Z,6.02
2017-05-26T21:22:50.169Z,5.82
2017-05-26T21:25:16.989Z,6.22
2017-05-26T21:27:43.747Z,5.88
2017-05-26T21:30:10.537Z,6.10
2017-05-26T21:32:37.367Z,6.32
2017-05-26T21:35:04.171Z,6.54
2017-05-26T21:37:30.958Z,5.56
2017-05-26T21:39:57.809Z,6.26
2017-05-26T21:42:24.608Z,6.12
2017-05-26T21:44:51.372Z,5.20
2017-05-26T21:47:18.450Z,5.60
2017-05-26T21:49:45.203Z,5.22
2017-05-26T21:52:11.990Z,6.12
2017-05-26T21:54:39.424Z,5.42
2017-05-26T21:57:06.256Z,5.90
2017-05-26T21:59:33.143Z,5.26
2017-05-26T22:01:59.961Z,5.68
2017-05-26T22:04:26.742Z,5.38
2017-05-26T22:06:53.537Z,5.60
2017-05-26T22:09:20.328Z,5.64
2017-05-26T22:11:47.060Z,6.20
2017-05-26T22:14:13.825Z,5.86
2017-05-26T22:16:40.560Z,5.94
2017-05-26T22:19:07.285Z,5.72
2017-05-26T22:21:34.009Z,6.42
2017-05-26T22:24:00.736Z,5.70
2017-05-26T22:26:27.460Z,5.66
2017-05-26T22:28:54.184Z,5.40
2017-05-26T22:31:20.919Z,5.92
2017-05-26T22:33:47.654Z,6.38
2017-05-26T22:36:14.370Z,6.92
2017-05-26T22:38:41.160Z,7.16
2017-05-26T22:41:07.868Z,7.46
2017-05-26T22:43:34.586Z,6.36
2017-05-26T22:46:01.317Z,7.16
2017-05-26T22:48:28.047Z,7.04
2017-05-26T22:50:54.778Z,7.00
2017-05-26T22:53:21.508Z,6.72
2017-05-26T22:55:48.219Z,6.60
2017-05-26T22:58:14.935Z,6.68
2017-05-26T23:00:41.654Z,7.02
2017-05-26T23:03:09.328Z,6.54
2017-05-26T23:05:36.053Z,6.62
2017-05-26T23:08:02.793Z,6.28
2017-05-26T23:10:29.514Z,6.32
2017-05-26T23:12:56.234Z,6.40
2017-05-26T23:15:22.949Z,6.48
2017-05-26T23:17:49.698Z,6.10
2017-05-26T23:20:16.421Z,5.84
2017-05-26T23:22:43.186Z,6.12
2017-05-26T23:25:09.915Z,6.00
2017-05-26T23:27:36.629Z,6.20
2017-05-26T23:30:03.349Z,6.02
2017-05-26T23:32:30.087Z,6.48
2017-05-26T23:34:56.810Z,7.06
2017-05-26T23:37:23.578Z,7.40
2017-05-26T23:39:50.313Z,7.40
2017-05-26T23:42:17.030Z,6.98
2017-05-26T23:44:43.757Z,7.24
2017-05-26T23:47:10.488Z,7.58
2017-05-26T23:49:37.215Z,6.92
2017-05-26T23:52:03.990Z,6.40
2017-05-26T23:54:30.716Z,6.94
2017-05-26T23:56:57.429Z,6.54
2017-05-26T23:59:24.146Z,7.30
